Time;durP1;ratioP1;P1;durP2;ratioP2;P2;SDS_P1;SDS_P2;PMS_P1;PMS_P2;Temp;Humidity;BMP_temperature;BMP_pressure;BME280_temperature;BME280_humidity;BME280_pressure;Samples;Min_cycle;Max_cycle;Signal;HPM_P1;HPM_P2
2023/06/02 00:01:31;;;;;;;;;;;;;;;;;;4877454;29;2482;-54
2023/06/02 00:04:03;;;;;;;;;;;;;;;;;;4878031;29;2035;-57
2023/06/02 00:06:32;;;;;;;;;;;;;;;;;;4878208;29;2384;-56
2023/06/02 00:09:05;;;;;;;;;;;;;;;;;;4878166;29;2089;-56
2023/06/02 00:11:36;;;;;;;;;;;;;;;;;;4877744;29;2250;-56
2023/06/02 00:14:06;;;;;;;;;;;;;;;;;;4877466;29;2031;-59
2023/06/02 00:16:44;;;;;;;;;;;;;;;;;;4878197;29;2309;-54
2023/06/02 00:19:13;;;;;;;;;;;;;;;;;;4877867;29;2109;-61
2023/06/02 00:21:41;;;;;;;;;;;;;;;;;;4877846;29;2285;-50
2023/06/02 00:24:08;;;;;;;;;;;;;;;;;;4877461;29;2093;-53
2023/06/02 00:26:36;;;;;;;;;;;;;;;;;;4877664;29;2553;-61
2023/06/02 00:29:03;;;;;;;;;;;;;;;;;;4877654;29;1982;-52
2023/06/02 00:31:32;;;;;;;;;;;;;;;;;;4876892;29;1886;-60
2023/06/02 00:33:59;;;;;;;;;;;;;;;;;;4876125;29;2135;-61
2023/06/02 00:36:27;;;;;;;;;;;;;;;;;;4877200;29;2102;-54
2023/06/02 00:38:54;;;;;;;;;;;;;;;;;;4877312;29;1764;-57
2023/06/02 00:41:21;;;;;;;;;;;;;;;;;;4876081;29;2017;-57
2023/06/02 00:43:48;;;;;;;;;;;;;;;;;;4877086;29;2221;-55
2023/06/02 00:46:16;;;;;;;;;;;;;;;;;;4877514;29;2104;-54
2023/06/02 00:48:44;;;;;;;;;;;;;;;;;;4877142;29;2034;-54
2023/06/02 00:51:11;;;;;;;;;;;;;;;;;;4877581;29;2040;-55
2023/06/02 00:53:38;;;;;;;;;;;;;;;;;;4884115;29;2051;-55
2023/06/02 00:56:08;;;;;;;;;;;;;;;;;;4895479;29;2370;-61
2023/06/02 00:58:41;;;;;;;;;;;;;;;;;;4880349;29;2321;-58
2023/06/02 01:01:10;;;;;;;;;;;;;;;;;;4875814;29;2404;-56
2023/06/02 01:03:43;;;;;;;;;;;;;;;;;;4876971;29;1982;-59
2023/06/02 01:06:11;;;;;;;;;;;;;;;;;;4877209;29;2325;-59
2023/06/02 01:08:39;;;;;;;;;;;;;;;;;;4877119;29;2266;-54
2023/06/02 01:11:07;;;;;;;;;;;;;;;;;;4909179;29;2012;-57
2023/06/02 01:13:36;;;;;;;;;;;;;;;;;;4895467;29;2488;-52
2023/06/02 01:16:04;;;;;;;;;;;;;;;;;;4895551;29;2031;-53
2023/06/02 01:18:35;;;;;;;;;;;;;;;;;;4895485;29;2269;-53
2023/06/02 01:21:05;;;;;;;;;;;;;;;;;;4895231;29;1988;-52
2023/06/02 01:23:36;;;;;;;;;;;;;;;;;;4895372;29;2377;-58
2023/06/02 01:26:08;;;;;;;;;;;;;;;;;;4895189;29;2096;-55
2023/06/02 01:28:37;;;;;;;;;;;;;;;;;;4894336;29;2279;-60
2023/06/02 01:31:17;;;;;;;;;;;;;;;;;;4895102;29;2229;-54
2023/06/02 01:33:57;;;;;;;;;;;;;;;;;;4895433;29;2294;-61
2023/06/02 01:36:27;;;;;;;;;;;;;;;;;;4893418;29;2130;-57
2023/06/02 01:38:56;;;;;;;;;;;;;;;;;;4893835;29;2380;-49
2023/06/02 01:41:27;;;;;;;;;;;;;;;;;;4894966;29;2018;-60
2023/06/02 01:43:56;;;;;;;;;;;;;;;;;;4893907;29;2458;-55
2023/06/02 01:46:24;;;;;;;;;;;;;;;;;;4893999;29;2096;-58
2023/06/02 01:48:53;;;;;;;;;;;;;;;;;;4895211;29;2124;-58
2023/06/02 01:51:20;;;;;;;;;;;;;;;;;;4894732;29;2357;-56
2023/06/02 01:53:48;;;;;;;;;;;;;;;;;;4893839;29;2237;-50
2023/06/02 01:56:15;;;;;;;;;;;;;;;;;;4895058;29;2455;-57
2023/06/02 01:58:42;;;;;;;;;;;;;;;;;;4878490;29;2118;-57
2023/06/02 02:01:10;;;;;;;;;;;;;;;;;;4875389;29;2457;-54
2023/06/02 02:03:38;;;;;;;;;;;;;;;;;;4875851;29;2557;-56
2023/06/02 02:06:05;;;;;;;;;;;;;;;;;;4876390;29;2062;-56
2023/06/02 02:08:32;;;;;;;;;;;;;;;;;;4876226;29;2247;-57
2023/06/02 02:11:00;;;;;;;;;;;;;;;;;;4876174;29;2036;-55
2023/06/02 02:13:28;;;;;;;;;;;;;;;;;;4876193;29;2317;-60
2023/06/02 02:15:55;;;;;;;;;;;;;;;;;;4876120;29;2111;-52
2023/06/02 02:18:24;;;;;;;;;;;;;;;;;;4876628;29;2060;-56
2023/06/02 02:20:51;;;;;;;;;;;;;;;;;;4876399;29;2309;-56
2023/06/02 02:23:19;;;;;;;;;;;;;;;;;;4876189;29;2000;-50
2023/06/02 02:25:48;;;;;;;;;;;;;;;;;;4876445;29;2341;-51
2023/06/02 02:28:16;;;;;;;;;;;;;;;;;;4875173;29;2104;-59
2023/06/02 02:30:43;;;;;;;;;;;;;;;;;;4876101;29;2385;-59
2023/06/02 02:33:13;;;;;;;;;;;;;;;;;;4882384;29;2077;-56
2023/06/02 02:35:43;;;;;;;;;;;;;;;;;;4875772;29;2271;-54
2023/06/02 02:38:11;;;;;;;;;;;;;;;;;;4876217;29;2346;-59
2023/06/02 02:40:38;;;;;;;;;;;;;;;;;;4882879;29;2143;-54
2023/06/02 02:43:07;;;;;;;;;;;;;;;;;;4894883;29;2487;-56
2023/06/02 02:45:37;;;;;;;;;;;;;;;;;;4894603;29;2230;-58
2023/06/02 02:48:04;;;;;;;;;;;;;;;;;;4894618;29;2628;-58
2023/06/02 02:50:32;;;;;;;;;;;;;;;;;;4892906;29;2119;-55
2023/06/02 02:53:01;;;;;;;;;;;;;;;;;;4894855;29;2222;-58
2023/06/02 02:55:32;;;;;;;;;;;;;;;;;;4896373;29;2026;-54
2023/06/02 02:58:00;;;;;;;;;;;;;;;;;;4886663;29;2296;-60
2023/06/02 03:00:28;;;;;;;;;;;;;;;;;;4879004;29;2268;-59
2023/06/02 03:03:01;;;;;;;;;;;;;;;;;;4877777;29;2294;-56
2023/06/02 03:05:28;;;;;;;;;;;;;;;;;;4879060;29;2294;-55
2023/06/02 03:07:55;;;;;;;;;;;;;;;;;;4896605;29;2122;-58
2023/06/02 03:10:22;;;;;;;;;;;;;;;;;;4898083;29;2337;-58
2023/06/02 03:12:51;;;;;;;;;;;;;;;;;;4897778;29;2057;-56
2023/06/02 03:15:19;;;;;;;;;;;;;;;;;;4897836;29;1893;-60
2023/06/02 03:17:50;;;;;;;;;;;;;;;;;;4897875;29;2132;-60
2023/06/02 03:20:19;;;;;;;;;;;;;;;;;;4896553;29;2039;-57
2023/06/02 03:22:50;;;;;;;;;;;;;;;;;;4896545;29;2142;-61
2023/06/02 03:25:20;;;;;;;;;;;;;;;;;;4896605;29;2046;-57
2023/06/02 03:27:51;;;;;;;;;;;;;;;;;;4916560;29;2035;-54
2023/06/02 03:30:20;;;;;;;;;;;;;;;;;;4879530;29;2014;-53
2023/06/02 03:32:52;;;;;;;;;;;;;;;;;;4877378;29;2139;-61
2023/06/02 03:35:19;;;;;;;;;;;;;;;;;;4877490;29;2203;-57
2023/06/02 03:37:46;;;;;;;;;;;;;;;;;;4878464;29;2470;-59
2023/06/02 03:40:14;;;;;;;;;;;;;;;;;;4877255;29;2229;-59
2023/06/02 03:42:43;;;;;;;;;;;;;;;;;;4879488;29;2052;-57
2023/06/02 03:45:10;;;;;;;;;;;;;;;;;;4877414;29;2140;-59
2023/06/02 03:47:39;;;;;;;;;;;;;;;;;;4876736;29;2195;-57
2023/06/02 03:50:09;;;;;;;;;;;;;;;;;;4877174;29;2332;-60
2023/06/02 03:52:37;;;;;;;;;;;;;;;;;;4876898;29;2063;-57
2023/06/02 03:55:05;;;;;;;;;;;;;;;;;;4914605;29;2293;-57
2023/06/02 03:57:32;;;;;;;;;;;;;;;;;;4889077;29;2168;-54
2023/06/02 03:59:59;;;;;;;;;;;;;;;;;;4879022;29;2043;-52
2023/06/02 04:02:27;;;;;;;;;;;;;;;;;;4876564;29;2384;-53
2023/06/02 04:04:55;;;;;;;;;;;;;;;;;;4876789;29;2055;-54
2023/06/02 04:07:23;;;;;;;;;;;;;;;;;;4876878;29;2523;-53
2023/06/02 04:09:50;;;;;;;;;;;;;;;;;;4876990;29;2107;-53
2023/06/02 04:12:17;;;;;;;;;;;;;;;;;;4877987;29;2106;-53
2023/06/02 04:14:45;;;;;;;;;;;;;;;;;;4876518;29;2243;-61
2023/06/02 04:17:12;;;;;;;;;;;;;;;;;;4876763;29;1982;-52
2023/06/02 04:19:39;;;;;;;;;;;;;;;;;;4878125;29;1971;-58
2023/06/02 04:22:06;;;;;;;;;;;;;;;;;;4879528;29;1988;-63
2023/06/02 04:24:34;;;;;;;;;;;;;;;;;;4894816;29;2084;-61
2023/06/02 04:27:02;;;;;;;;;;;;;;;;;;4864158;29;10249;-62
2023/06/02 04:29:29;;;;;;;;;;;;;;;;;;4879303;29;6404;-50
2023/06/02 04:31:57;;;;;;;;;;;;;;;;;;4908352;29;2542;-54
2023/06/02 04:34:33;;;;;;;;;;;;;;;;;;4876336;29;2259;-62
2023/06/02 04:37:01;;;;;;;;;;;;;;;;;;4875741;29;2263;-54
2023/06/02 04:39:29;;;;;;;;;;;;;;;;;;4876321;29;2139;-61
2023/06/02 04:41:57;;;;;;;;;;;;;;;;;;4877817;29;2265;-61
2023/06/02 04:44:25;;;;;;;;;;;;;;;;;;4894860;29;2249;-64
2023/06/02 04:46:52;;;;;;;;;;;;;;;;;;4895900;29;2191;-55
2023/06/02 04:49:19;;;;;;;;;;;;;;;;;;4894075;29;2271;-53
2023/06/02 04:51:47;;;;;;;;;;;;;;;;;;4895803;29;2448;-52
2023/06/02 04:54:15;;;;;;;;;;;;;;;;;;4897427;29;2440;-53
2023/06/02 04:56:44;;;;;;;;;;;;;;;;;;4893488;29;2130;-53
2023/06/02 04:59:15;;;;;;;;;;;;;;;;;;4892822;29;2064;-64
2023/06/02 05:01:43;;;;;;;;;;;;;;;;;;4894529;29;2286;-64
2023/06/02 05:04:12;;;;;;;;;;;;;;;;;;4896020;29;2206;-63
2023/06/02 05:06:40;;;;;;;;;;;;;;;;;;4894445;29;2390;-58
2023/06/02 05:09:08;;;;;;;;;;;;;;;;;;4894343;29;2102;-58
2023/06/02 05:11:35;;;;;;;;;;;;;;;;;;4895895;29;2278;-64
2023/06/02 05:14:04;;;;;;;;;;;;;;;;;;4894369;29;2372;-63
2023/06/02 05:16:32;;;;;;;;;;;;;;;;;;4895887;29;2240;-61
2023/06/02 05:19:00;;;;;;;;;;;;;;;;;;4893978;29;2291;-61
2023/06/02 05:21:29;;;;;;;;;;;;;;;;;;4894259;29;2043;-64
2023/06/02 05:23:59;;;;;;;;;;;;;;;;;;4894267;29;2537;-63
2023/06/02 05:26:27;;;;;;;;;;;;;;;;;;4895519;29;2362;-58
2023/06/02 05:28:54;;;;;;;;;;;;;;;;;;4894283;29;2471;-64
2023/06/02 05:31:22;;;;;;;;;;;;;;;;;;4894376;29;2563;-62
2023/06/02 05:33:51;;;;;;;;;;;;;;;;;;4894544;29;2233;-64
2023/06/02 05:36:19;;;;;;;;;;;;;;;;;;4893757;29;2317;-59
2023/06/02 05:38:46;;;;;;;;;;;;;;;;;;4894248;29;2087;-63
2023/06/02 05:41:13;;;;;;;;;;;;;;;;;;4895547;29;2331;-64
2023/06/02 05:43:41;;;;;;;;;;;;;;;;;;4893377;29;2346;-64
2023/06/02 05:46:08;;;;;;;;;;;;;;;;;;4895485;29;2317;-63
2023/06/02 05:48:35;;;;;;;;;;;;;;;;;;4895555;29;2282;-64
2023/06/02 05:51:02;;;;;;;;;;;;;;;;;;4895627;29;2097;-60
2023/06/02 05:53:30;;;;;;;;;;;;;;;;;;4897369;29;2262;-63
2023/06/02 05:55:58;;;;;;;;;;;;;;;;;;4907649;29;2547;-63
2023/06/02 05:58:25;;;;;;;;;;;;;;;;;;4876084;29;2295;-53
2023/06/02 06:01:25;;;;;;;;;;;;;;;;;;4875511;29;2287;-61
2023/06/02 22:00:04;;;;;;;;;;;;;;;;;;4874109;29;2257;-56
2023/06/02 22:04:02;;;;;;;;;;;;;;;;;;4899202;29;1915;-64
2023/06/02 22:08:01;;;;;;;;;;;;;;;;;;4899434;29;2103;-59
2023/06/02 22:12:00;;;;;;;;;;;;;;;;;;4899441;29;2093;-59
2023/06/02 22:15:57;;;;;;;;;;;;;;;;;;4899361;29;2028;-61
2023/06/02 22:19:55;;;;;;;;;;;;;;;;;;4899646;29;1993;-62
2023/06/02 22:23:53;;;;;;;;;;;;;;;;;;4899099;29;1754;-57
2023/06/02 22:27:52;;;;;;;;;;;;;;;;;;4899117;29;1885;-55
2023/06/02 22:31:50;;;;;;;;;;;;;;;;;;4898733;29;2096;-59
2023/06/02 22:35:50;;;;;;;;;;;;;;;;;;4898748;29;1984;-58
2023/06/02 22:39:47;;;;;;;;;;;;;;;;;;4898577;29;2174;-59
2023/06/02 22:43:45;;;;;;;;;;;;;;;;;;4898674;29;2057;-59
2023/06/02 22:47:44;;;;;;;;;;;;;;;;;;4898841;29;2014;-60
2023/06/02 22:51:44;;;;;;;;;;;;;;;;;;4898488;29;1966;-60
2023/06/02 22:55:42;;;;;;;;;;;;;;;;;;4900412;29;2025;-63
2023/06/02 22:59:40;;;;;;;;;;;;;;;;;;4898718;29;2080;-54
